Погода Фейжона 2 недели

Акри, Бразилия

25 июля-07 августа
  • 25июля
    Сегодня
    +21°
    +35°
    Ясно и безоблачно
    ВремяПогодаТемператураВлажностьДавлениеВетер, м/сВероятность осадков
    01:00Ясно и безоблачно+21°C84 %744 мм0.8 м/с5 %
    04:00Ясно и безоблачно+20°C89 %743 мм0.2 м/с5 %
    07:00Небольшая облачность+24°C87 %745 мм1.1 м/с5 %
    10:00Ясно и безоблачно+30°C57 %746 мм0.6 м/с5 %
    13:00Ясно и безоблачно+35°C44 %744 мм0.7 м/с5 %
    16:00Ясно и безоблачно+33°C52 %742 мм0.3 м/с5 %
    19:00Ясно и безоблачно+30°C70 %742 мм1.8 м/с5 %
    22:00Небольшая облачность+23°C75 %743 мм0.6 м/с5 %
  • 26июля
    Пятница
    +22°
    +36°
    Ясно и безоблачно
    ВремяПогодаТемператураВлажностьДавлениеВетер, м/сВероятность осадков
    01:00Ясно и безоблачно+23°C79 %743 мм1.0 м/с5 %
    04:00Облачно с прояснениями+21°C85 %742 мм1.4 м/с5 %
    07:00Ясно и безоблачно+25°C86 %744 мм1.6 м/с5 %
    10:00Ясно и безоблачно+30°C61 %744 мм1.3 м/с5 %
    13:00Ясно и безоблачно+36°C45 %742 мм0.7 м/с5 %
    16:00Небольшая облачность+33°C53 %740 мм1.1 м/с5 %
    19:00Практически безоблачно+32°C62 %741 мм1.1 м/с5 %
    22:00Ясно и безоблачно+24°C76 %742 мм0.8 м/с5 %
  • 27июля
    Суббота
    +22°
    +36°
    Практически безоблачно
    ВремяПогодаТемператураВлажностьДавлениеВетер, м/сВероятность осадков
    01:00Облачно с прояснениями+23°C87 %741 мм1.1 м/с5 %
    04:00Пасмурно, сплошная облачность+24°C85 %741 мм0.9 м/с5 %
    07:00Практически безоблачно+26°C84 %743 мм1.4 м/с5 %
    10:00Практически безоблачно+31°C61 %745 мм1.4 м/с4 %
    13:00Практически безоблачно+36°C49 %743 мм0.9 м/с5 %
    16:00Ясно и безоблачно+34°C55 %741 мм0.8 м/с3 %
    19:00Ясно и безоблачно+31°C82 %741 мм1.4 м/с4 %
    22:00Ясно и безоблачно+25°C85 %743 мм1.4 м/с4 %
  • 28июля
    Воскресенье
    +21°
    +36°
    Ясно и безоблачно
    ВремяПогодаТемператураВлажностьДавлениеВетер, м/сВероятность осадков
    01:00Практически безоблачно+24°C90 %742 мм0.9 м/с4 %
    04:00Ясно и безоблачно+23°C96 %742 мм1.5 м/с5 %
    07:00Ясно и безоблачно+26°C92 %744 мм1.7 м/с5 %
    10:00Ясно и безоблачно+31°C60 %745 мм0.9 м/с5 %
    13:00Ясно и безоблачно+36°C41 %743 мм1.8 м/с5 %
    16:00Ясно и безоблачно+33°C48 %741 мм1.1 м/с5 %
    19:00Ясно и безоблачно+32°C66 %742 мм0.9 м/с5 %
    22:00Ясно и безоблачно+25°C68 %743 мм1.1 м/с5 %
  • 29июля
    Понедельник
    +19°
    +36°
    Практически безоблачно
    ВремяПогодаТемператураВлажностьДавлениеВетер, м/сВероятность осадков
    01:00Ясно и безоблачно+22°C84 %743 мм1.3 м/с4 %
    04:00Ясно и безоблачно+21°C91 %743 мм1.5 м/с4 %
    07:00Ясно и безоблачно+25°C86 %744 мм2.7 м/с4 %
    10:00Практически безоблачно+30°C59 %745 мм0.6 м/с5 %
    13:00Практически безоблачно+36°C41 %743 мм1.6 м/с5 %
    16:00Ясно и безоблачно+34°C48 %741 мм1.3 м/с5 %
    19:00Ясно и безоблачно+30°C71 %742 мм1.5 м/с5 %
    22:00Ясно и безоблачно+25°C68 %743 мм0.3 м/с5 %
Мы используем cookies
Соглашаюсь